sensor_id;sensor_type;location;lat;lon;timestamp;P1;durP1;ratioP1;P2;durP2;ratioP2
65665;SDS011;52365;47.464;18.976;2022-09-12T00:00:30;2.53;;;1.75;;
65665;SDS011;52365;47.464;18.976;2022-09-12T00:01:08;3.40;;;1.60;;
65665;SDS011;52365;47.464;18.976;2022-09-12T00:01:50;2.25;;;1.67;;
65665;SDS011;52365;47.464;18.976;2022-09-12T00:02:26;3.47;;;1.85;;
65665;SDS011;52365;47.464;18.976;2022-09-12T00:03:02;2.87;;;1.98;;
65665;SDS011;52365;47.464;18.976;2022-09-12T00:03:38;2.67;;;1.70;;
65665;SDS011;52365;47.464;18.976;2022-09-12T00:04:15;2.15;;;1.50;;
65665;SDS011;52365;47.464;18.976;2022-09-12T00:04:51;1.90;;;1.50;;
65665;SDS011;52365;47.464;18.976;2022-09-12T00:05:27;3.35;;;1.70;;
65665;SDS011;52365;47.464;18.976;2022-09-12T00:06:25;2.92;;;1.80;;
65665;SDS011;52365;47.464;18.976;2022-09-12T00:07:06;2.50;;;1.80;;
65665;SDS011;52365;47.464;18.976;2022-09-12T00:07:43;2.20;;;1.62;;
65665;SDS011;52365;47.464;18.976;2022-09-12T00:08:19;2.80;;;1.85;;
65665;SDS011;52365;47.464;18.976;2022-09-12T00:08:56;2.50;;;1.80;;
65665;SDS011;52365;47.464;18.976;2022-09-12T00:09:37;2.70;;;1.60;;
65665;SDS011;52365;47.464;18.976;2022-09-12T00:10:14;2.22;;;1.62;;
65665;SDS011;52365;47.464;18.976;2022-09-12T00:10:50;2.65;;;1.80;;
65665;SDS011;52365;47.464;18.976;2022-09-12T00:11:26;2.37;;;1.60;;
65665;SDS011;52365;47.464;18.976;2022-09-12T00:12:04;2.97;;;1.70;;
65665;SDS011;52365;47.464;18.976;2022-09-12T00:12:40;4.43;;;1.75;;
65665;SDS011;52365;47.464;18.976;2022-09-12T00:13:16;3.50;;;1.90;;
65665;SDS011;52365;47.464;18.976;2022-09-12T00:13:56;2.87;;;1.83;;
65665;SDS011;52365;47.464;18.976;2022-09-12T00:14:34;2.15;;;1.60;;
65665;SDS011;52365;47.464;18.976;2022-09-12T00:15:11;2.70;;;1.73;;
65665;SDS011;52365;47.464;18.976;2022-09-12T00:15:47;2.95;;;1.60;;
65665;SDS011;52365;47.464;18.976;2022-09-12T00:16:24;2.70;;;1.60;;
65665;SDS011;52365;47.464;18.976;2022-09-12T00:17:01;2.90;;;1.62;;
65665;SDS011;52365;47.464;18.976;2022-09-12T00:17:38;3.33;;;1.70;;
65665;SDS011;52365;47.464;18.976;2022-09-12T00:18:15;2.95;;;1.50;;
65665;SDS011;52365;47.464;18.976;2022-09-12T00:18:51;4.03;;;1.80;;
65665;SDS011;52365;47.464;18.976;2022-09-12T00:19:28;2.37;;;1.50;;
65665;SDS011;52365;47.464;18.976;2022-09-12T00:20:05;2.97;;;1.60;;
65665;SDS011;52365;47.464;18.976;2022-09-12T00:20:43;2.10;;;1.70;;
65665;SDS011;52365;47.464;18.976;2022-09-12T00:21:21;2.95;;;1.77;;
65665;SDS011;52365;47.464;18.976;2022-09-12T00:21:58;2.72;;;1.75;;
65665;SDS011;52365;47.464;18.976;2022-09-12T00:22:35;3.12;;;1.70;;
65665;SDS011;52365;47.464;18.976;2022-09-12T00:23:12;2.30;;;1.60;;
65665;SDS011;52365;47.464;18.976;2022-09-12T00:23:49;2.78;;;1.80;;
65665;SDS011;52365;47.464;18.976;2022-09-12T00:24:26;2.53;;;1.77;;
65665;SDS011;52365;47.464;18.976;2022-09-12T00:25:02;2.90;;;1.80;;
65665;SDS011;52365;47.464;18.976;2022-09-12T00:25:41;3.50;;;1.65;;
65665;SDS011;52365;47.464;18.976;2022-09-12T00:26:19;3.87;;;1.60;;
65665;SDS011;52365;47.464;18.976;2022-09-12T00:26:56;2.72;;;1.70;;
65665;SDS011;52365;47.464;18.976;2022-09-12T00:27:32;2.60;;;1.70;;
65665;SDS011;52365;47.464;18.976;2022-09-12T00:28:08;2.60;;;1.70;;
65665;SDS011;52365;47.464;18.976;2022-09-12T00:28:45;3.17;;;1.48;;
65665;SDS011;52365;47.464;18.976;2022-09-12T00:29:22;2.85;;;1.60;;
65665;SDS011;52365;47.464;18.976;2022-09-12T00:29:58;2.30;;;1.55;;
65665;SDS011;52365;47.464;18.976;2022-09-12T00:30:35;2.08;;;1.40;;
65665;SDS011;52365;47.464;18.976;2022-09-12T00:31:16;2.83;;;1.60;;
65665;SDS011;52365;47.464;18.976;2022-09-12T00:31:54;4.30;;;1.80;;
65665;SDS011;52365;47.464;18.976;2022-09-12T00:32:30;4.10;;;1.80;;
65665;SDS011;52365;47.464;18.976;2022-09-12T00:33:06;3.53;;;1.70;;
65665;SDS011;52365;47.464;18.976;2022-09-12T00:33:43;3.15;;;2.00;;
65665;SDS011;52365;47.464;18.976;2022-09-12T00:34:19;2.75;;;1.60;;
65665;SDS011;52365;47.464;18.976;2022-09-12T00:34:55;3.00;;;1.60;;
65665;SDS011;52365;47.464;18.976;2022-09-12T00:35:31;2.25;;;1.70;;
65665;SDS011;52365;47.464;18.976;2022-09-12T00:36:08;2.65;;;1.73;;
65665;SDS011;52365;47.464;18.976;2022-09-12T00:36:50;2.40;;;1.60;;
65665;SDS011;52365;47.464;18.976;2022-09-12T00:37:26;2.37;;;1.75;;
65665;SDS011;52365;47.464;18.976;2022-09-12T00:38:02;2.40;;;1.90;;
65665;SDS011;52365;47.464;18.976;2022-09-12T00:38:38;3.35;;;1.80;;
65665;SDS011;52365;47.464;18.976;2022-09-12T00:39:18;2.25;;;1.73;;
65665;SDS011;52365;47.464;18.976;2022-09-12T00:39:54;2.85;;;1.67;;
65665;SDS011;52365;47.464;18.976;2022-09-12T00:40:30;2.87;;;1.83;;
65665;SDS011;52365;47.464;18.976;2022-09-12T00:41:07;3.67;;;1.77;;
65665;SDS011;52365;47.464;18.976;2022-09-12T00:41:48;2.42;;;1.77;;
65665;SDS011;52365;47.464;18.976;2022-09-12T00:42:24;3.17;;;1.85;;
65665;SDS011;52365;47.464;18.976;2022-09-12T00:43:00;2.03;;;1.70;;
65665;SDS011;52365;47.464;18.976;2022-09-12T00:43:43;2.83;;;1.80;;
65665;SDS011;52365;47.464;18.976;2022-09-12T00:45:14;2.72;;;1.80;;
65665;SDS011;52365;47.464;18.976;2022-09-12T00:45:58;2.83;;;1.73;;
65665;SDS011;52365;47.464;18.976;2022-09-12T00:46:51;2.20;;;1.50;;
65665;SDS011;52365;47.464;18.976;2022-09-12T00:47:37;2.87;;;1.80;;
65665;SDS011;52365;47.464;18.976;2022-09-12T00:48:16;2.42;;;1.62;;
65665;SDS011;52365;47.464;18.976;2022-09-12T00:49:08;4.62;;;1.70;;
65665;SDS011;52365;47.464;18.976;2022-09-12T00:49:50;2.15;;;1.40;;
65665;SDS011;52365;47.464;18.976;2022-09-12T00:50:44;2.22;;;1.75;;
65665;SDS011;52365;47.464;18.976;2022-09-12T00:51:20;2.30;;;1.58;;
65665;SDS011;52365;47.464;18.976;2022-09-12T00:52:07;2.35;;;1.55;;
65665;SDS011;52365;47.464;18.976;2022-09-12T00:52:51;2.87;;;1.70;;
65665;SDS011;52365;47.464;18.976;2022-09-12T00:53:32;2.90;;;1.85;;
65665;SDS011;52365;47.464;18.976;2022-09-12T00:54:09;2.40;;;1.83;;
65665;SDS011;52365;47.464;18.976;2022-09-12T00:55:01;2.90;;;1.95;;
65665;SDS011;52365;47.464;18.976;2022-09-12T00:55:42;2.62;;;1.75;;
65665;SDS011;52365;47.464;18.976;2022-09-12T00:56:24;3.65;;;1.87;;
65665;SDS011;52365;47.464;18.976;2022-09-12T00:57:02;2.58;;;1.60;;
65665;SDS011;52365;47.464;18.976;2022-09-12T00:57:55;2.70;;;1.65;;
65665;SDS011;52365;47.464;18.976;2022-09-12T00:58:35;2.85;;;1.60;;
65665;SDS011;52365;47.464;18.976;2022-09-12T00:59:18;2.70;;;1.73;;
65665;SDS011;52365;47.464;18.976;2022-09-12T01:00:06;2.90;;;1.87;;
65665;SDS011;52365;47.464;18.976;2022-09-12T01:00:50;2.97;;;1.85;;
65665;SDS011;52365;47.464;18.976;2022-09-12T01:01:27;2.30;;;1.55;;
65665;SDS011;52365;47.464;18.976;2022-09-12T01:02:06;3.50;;;1.77;;
65665;SDS011;52365;47.464;18.976;2022-09-12T01:02:43;2.47;;;1.60;;
65665;SDS011;52365;47.464;18.976;2022-09-12T01:03:29;3.10;;;1.80;;
65665;SDS011;52365;47.464;18.976;2022-09-12T01:04:06;2.20;;;1.80;;
65665;SDS011;52365;47.464;18.976;2022-09-12T01:04:44;3.00;;;1.85;;
65665;SDS011;52365;47.464;18.976;2022-09-12T01:05:22;2.80;;;2.03;;
65665;SDS011;52365;47.464;18.976;2022-09-12T01:06:08;2.33;;;1.60;;
65665;SDS011;52365;47.464;18.976;2022-09-12T01:06:50;4.00;;;2.08;;
65665;SDS011;52365;47.464;18.976;2022-09-12T01:07:27;2.25;;;1.70;;
65665;SDS011;52365;47.464;18.976;2022-09-12T01:08:04;2.75;;;1.80;;
65665;SDS011;52365;47.464;18.976;2022-09-12T01:08:42;2.83;;;1.80;;
65665;SDS011;52365;47.464;18.976;2022-09-12T01:09:19;2.50;;;1.73;;
65665;SDS011;52365;47.464;18.976;2022-09-12T01:09:58;2.72;;;1.80;;
65665;SDS011;52365;47.464;18.976;2022-09-12T01:10:34;2.47;;;1.67;;
65665;SDS011;52365;47.464;18.976;2022-09-12T01:11:12;2.83;;;1.80;;
65665;SDS011;52365;47.464;18.976;2022-09-12T01:11:49;2.63;;;1.70;;
65665;SDS011;52365;47.464;18.976;2022-09-12T01:12:26;2.30;;;1.65;;
65665;SDS011;52365;47.464;18.976;2022-09-12T01:13:02;2.60;;;1.60;;
65665;SDS011;52365;47.464;18.976;2022-09-12T01:13:42;2.30;;;1.80;;
65665;SDS011;52365;47.464;18.976;2022-09-12T01:14:19;3.17;;;1.70;;
65665;SDS011;52365;47.464;18.976;2022-09-12T01:14:55;3.20;;;2.03;;
65665;SDS011;52365;47.464;18.976;2022-09-12T01:15:32;2.30;;;1.90;;
65665;SDS011;52365;47.464;18.976;2022-09-12T01:16:08;2.80;;;1.70;;
65665;SDS011;52365;47.464;18.976;2022-09-12T01:16:45;2.92;;;1.83;;
65665;SDS011;52365;47.464;18.976;2022-09-12T01:17:22;2.20;;;1.50;;
65665;SDS011;52365;47.464;18.976;2022-09-12T01:19:20;2.58;;;1.80;;
65665;SDS011;52365;47.464;18.976;2022-09-12T01:25:09;2.45;;;1.90;;
65665;SDS011;52365;47.464;18.976;2022-09-12T01:26:01;2.65;;;1.70;;
65665;SDS011;52365;47.464;18.976;2022-09-12T01:31:52;2.12;;;1.65;;
65665;SDS011;52365;47.464;18.976;2022-09-12T01:37:33;3.30;;;1.90;;
65665;SDS011;52365;47.464;18.976;2022-09-12T01:38:23;2.33;;;1.67;;
65665;SDS011;52365;47.464;18.976;2022-09-12T01:39:56;2.20;;;1.52;;
65665;SDS011;52365;47.464;18.976;2022-09-12T01:40:41;2.47;;;1.67;;
65665;SDS011;52365;47.464;18.976;2022-09-12T01:41:27;2.80;;;2.00;;
65665;SDS011;52365;47.464;18.976;2022-09-12T01:44:49;2.55;;;1.90;;
65665;SDS011;52365;47.464;18.976;2022-09-12T01:45:44;2.53;;;1.98;;
65665;SDS011;52365;47.464;18.976;2022-09-12T01:46:23;2.45;;;1.95;;
65665;SDS011;52365;47.464;18.976;2022-09-12T01:47:05;3.45;;;2.03;;
65665;SDS011;52365;47.464;18.976;2022-09-12T01:47:55;2.40;;;1.70;;
65665;SDS011;52365;47.464;18.976;2022-09-12T01:48:39;2.47;;;1.77;;
65665;SDS011;52365;47.464;18.976;2022-09-12T01:50:00;3.20;;;2.00;;
65665;SDS011;52365;47.464;18.976;2022-09-12T01:50:45;3.50;;;1.95;;
65665;SDS011;52365;47.464;18.976;2022-09-12T01:51:27;2.67;;;1.90;;
65665;SDS011;52365;47.464;18.976;2022-09-12T01:52:57;2.65;;;1.90;;
65665;SDS011;52365;47.464;18.976;2022-09-12T01:53:40;2.35;;;1.70;;
65665;SDS011;52365;47.464;18.976;2022-09-12T01:55:42;3.45;;;1.70;;
65665;SDS011;52365;47.464;18.976;2022-09-12T01:56:25;2.92;;;2.00;;
65665;SDS011;52365;47.464;18.976;2022-09-12T01:57:06;3.40;;;1.90;;
65665;SDS011;52365;47.464;18.976;2022-09-12T01:57:53;2.67;;;1.80;;
65665;SDS011;52365;47.464;18.976;2022-09-12T01:58:41;2.70;;;1.60;;
65665;SDS011;52365;47.464;18.976;2022-09-12T01:59:27;2.87;;;1.90;;
65665;SDS011;52365;47.464;18.976;2022-09-12T02:00:09;2.70;;;1.70;;
65665;SDS011;52365;47.464;18.976;2022-09-12T02:00:48;2.95;;;1.80;;
65665;SDS011;52365;47.464;18.976;2022-09-12T02:01:35;2.53;;;1.83;;
65665;SDS011;52365;47.464;18.976;2022-09-12T02:02:25;2.70;;;1.80;;
65665;SDS011;52365;47.464;18.976;2022-09-12T02:03:13;2.33;;;1.90;;
65665;SDS011;52365;47.464;18.976;2022-09-12T02:05:13;2.37;;;1.60;;
65665;SDS011;52365;47.464;18.976;2022-09-12T02:05:47;3.60;;;1.80;;
65665;SDS011;52365;47.464;18.976;2022-09-12T02:06:51;2.60;;;1.90;;
65665;SDS011;52365;47.464;18.976;2022-09-12T02:07:59;2.65;;;1.80;;
65665;SDS011;52365;47.464;18.976;2022-09-12T02:08:53;2.90;;;1.73;;
65665;SDS011;52365;47.464;18.976;2022-09-12T02:09:41;2.75;;;1.87;;
65665;SDS011;52365;47.464;18.976;2022-09-12T02:10:24;2.90;;;2.00;;
65665;SDS011;52365;47.464;18.976;2022-09-12T02:11:06;2.80;;;1.80;;
65665;SDS011;52365;47.464;18.976;2022-09-12T02:11:44;3.53;;;1.95;;
65665;SDS011;52365;47.464;18.976;2022-09-12T02:12:24;3.58;;;1.98;;
65665;SDS011;52365;47.464;18.976;2022-09-12T02:13:50;3.00;;;2.08;;
65665;SDS011;52365;47.464;18.976;2022-09-12T02:14:18;2.72;;;2.00;;
65665;SDS011;52365;47.464;18.976;2022-09-12T02:14:58;4.15;;;1.95;;
65665;SDS011;52365;47.464;18.976;2022-09-12T02:15:41;5.03;;;2.03;;
65665;SDS011;52365;47.464;18.976;2022-09-12T02:16:22;2.80;;;2.28;;
65665;SDS011;52365;47.464;18.976;2022-09-12T02:17:05;2.70;;;2.10;;
65665;SDS011;52365;47.464;18.976;2022-09-12T02:17:47;3.30;;;2.28;;
65665;SDS011;52365;47.464;18.976;2022-09-12T02:18:25;3.10;;;2.10;;
65665;SDS011;52365;47.464;18.976;2022-09-12T02:19:06;3.28;;;2.25;;
65665;SDS011;52365;47.464;18.976;2022-09-12T02:20:45;3.00;;;2.30;;
65665;SDS011;52365;47.464;18.976;2022-09-12T02:21:23;3.10;;;2.37;;
65665;SDS011;52365;47.464;18.976;2022-09-12T02:22:02;3.47;;;2.55;;
65665;SDS011;52365;47.464;18.976;2022-09-12T02:22:41;4.22;;;2.78;;
65665;SDS011;52365;47.464;18.976;2022-09-12T02:23:19;3.62;;;2.65;;
65665;SDS011;52365;47.464;18.976;2022-09-12T02:24:01;3.70;;;2.55;;
65665;SDS011;52365;47.464;18.976;2022-09-12T02:24:40;3.45;;;2.70;;
65665;SDS011;52365;47.464;18.976;2022-09-12T02:25:20;3.55;;;2.80;;
65665;SDS011;52365;47.464;18.976;2022-09-12T02:26:02;3.40;;;2.72;;
65665;SDS011;52365;47.464;18.976;2022-09-12T02:26:46;5.25;;;2.65;;
65665;SDS011;52365;47.464;18.976;2022-09-12T02:27:32;3.20;;;2.53;;
65665;SDS011;52365;47.464;18.976;2022-09-12T02:28:50;3.55;;;2.85;;
65665;SDS011;52365;47.464;18.976;2022-09-12T02:29:19;3.60;;;2.58;;
65665;SDS011;52365;47.464;18.976;2022-09-12T02:29:55;3.40;;;2.75;;
65665;SDS011;52365;47.464;18.976;2022-09-12T02:30:34;4.00;;;2.60;;
65665;SDS011;52365;47.464;18.976;2022-09-12T02:31:22;4.60;;;2.60;;
65665;SDS011;52365;47.464;18.976;2022-09-12T02:31:59;3.65;;;2.90;;
65665;SDS011;52365;47.464;18.976;2022-09-12T02:33:02;3.10;;;2.80;;
65665;SDS011;52365;47.464;18.976;2022-09-12T02:33:45;4.12;;;2.90;;
65665;SDS011;52365;47.464;18.976;2022-09-12T02:35:22;3.53;;;2.70;;
65665;SDS011;52365;47.464;18.976;2022-09-12T02:38:42;3.80;;;3.10;;
65665;SDS011;52365;47.464;18.976;2022-09-12T02:39:20;4.03;;;2.95;;
65665;SDS011;52365;47.464;18.976;2022-09-12T02:39:57;4.47;;;2.90;;
65665;SDS011;52365;47.464;18.976;2022-09-12T02:40:34;4.25;;;2.92;;
65665;SDS011;52365;47.464;18.976;2022-09-12T02:41:13;3.58;;;2.92;;
65665;SDS011;52365;47.464;18.976;2022-09-12T02:41:53;4.22;;;3.00;;
65665;SDS011;52365;47.464;18.976;2022-09-12T02:42:31;3.55;;;2.90;;
65665;SDS011;52365;47.464;18.976;2022-09-12T02:43:07;4.72;;;3.30;;
65665;SDS011;52365;47.464;18.976;2022-09-12T02:43:44;4.03;;;2.83;;
65665;SDS011;52365;47.464;18.976;2022-09-12T02:44:21;4.85;;;2.80;;
65665;SDS011;52365;47.464;18.976;2022-09-12T02:44:59;3.72;;;2.90;;
65665;SDS011;52365;47.464;18.976;2022-09-12T02:45:36;5.47;;;3.08;;
65665;SDS011;52365;47.464;18.976;2022-09-12T02:46:14;4.22;;;2.90;;
65665;SDS011;52365;47.464;18.976;2022-09-12T02:46:54;4.10;;;3.20;;
65665;SDS011;52365;47.464;18.976;2022-09-12T02:47:40;4.10;;;3.25;;
65665;SDS011;52365;47.464;18.976;2022-09-12T02:48:31;4.47;;;3.20;;
65665;SDS011;52365;47.464;18.976;2022-09-12T02:49:11;4.20;;;3.10;;
65665;SDS011;52365;47.464;18.976;2022-09-12T02:49:47;4.68;;;3.30;;
65665;SDS011;52365;47.464;18.976;2022-09-12T02:50:24;4.55;;;3.00;;
65665;SDS011;52365;47.464;18.976;2022-09-12T02:51:01;4.35;;;2.92;;
65665;SDS011;52365;47.464;18.976;2022-09-12T02:51:37;5.00;;;3.10;;
65665;SDS011;52365;47.464;18.976;2022-09-12T02:52:14;4.22;;;3.25;;
65665;SDS011;52365;47.464;18.976;2022-09-12T02:52:51;4.72;;;3.17;;
65665;SDS011;52365;47.464;18.976;2022-09-12T02:53:29;4.90;;;3.10;;
65665;SDS011;52365;47.464;18.976;2022-09-12T02:54:06;3.87;;;2.80;;
65665;SDS011;52365;47.464;18.976;2022-09-12T02:54:43;4.00;;;2.90;;
65665;SDS011;52365;47.464;18.976;2022-09-12T02:55:20;4.10;;;3.03;;
65665;SDS011;52365;47.464;18.976;2022-09-12T02:55:59;4.05;;;3.17;;
65665;SDS011;52365;47.464;18.976;2022-09-12T02:56:39;4.22;;;3.12;;
65665;SDS011;52365;47.464;18.976;2022-09-12T02:57:17;5.32;;;3.10;;
65665;SDS011;52365;47.464;18.976;2022-09-12T02:57:55;4.80;;;2.70;;
65665;SDS011;52365;47.464;18.976;2022-09-12T02:58:31;3.65;;;2.83;;
65665;SDS011;52365;47.464;18.976;2022-09-12T02:59:08;4.95;;;3.20;;
65665;SDS011;52365;47.464;18.976;2022-09-12T02:59:47;4.25;;;3.22;;
65665;SDS011;52365;47.464;18.976;2022-09-12T03:00:32;4.93;;;2.97;;
65665;SDS011;52365;47.464;18.976;2022-09-12T03:01:32;5.75;;;3.50;;
65665;SDS011;52365;47.464;18.976;2022-09-12T03:05:46;4.78;;;3.17;;
65665;SDS011;52365;47.464;18.976;2022-09-12T03:06:34;4.90;;;3.10;;
65665;SDS011;52365;47.464;18.976;2022-09-12T03:09:15;4.55;;;2.97;;
65665;SDS011;52365;47.464;18.976;2022-09-12T03:10:03;3.40;;;2.87;;
65665;SDS011;52365;47.464;18.976;2022-09-12T03:10:53;3.95;;;2.83;;
65665;SDS011;52365;47.464;18.976;2022-09-12T03:15:14;3.45;;;2.62;;
65665;SDS011;52365;47.464;18.976;2022-09-12T03:16:15;3.72;;;2.70;;
65665;SDS011;52365;47.464;18.976;2022-09-12T03:19:18;3.65;;;2.70;;
65665;SDS011;52365;47.464;18.976;2022-09-12T03:20:12;5.03;;;2.80;;
65665;SDS011;52365;47.464;18.976;2022-09-12T03:23:23;4.72;;;2.92;;
65665;SDS011;52365;47.464;18.976;2022-09-12T03:26:04;4.78;;;3.03;;
65665;SDS011;52365;47.464;18.976;2022-09-12T03:26:48;4.05;;;2.80;;
65665;SDS011;52365;47.464;18.976;2022-09-12T03:27:34;3.90;;;2.70;;
65665;SDS011;52365;47.464;18.976;2022-09-12T03:28:14;4.05;;;2.83;;
65665;SDS011;52365;47.464;18.976;2022-09-12T03:28:52;3.72;;;2.90;;
65665;SDS011;52365;47.464;18.976;2022-09-12T03:29:30;3.65;;;2.60;;
65665;SDS011;52365;47.464;18.976;2022-09-12T03:30:07;4.05;;;2.70;;
65665;SDS011;52365;47.464;18.976;2022-09-12T03:30:44;5.47;;;2.95;;
65665;SDS011;52365;47.464;18.976;2022-09-12T03:31:22;3.12;;;2.60;;
65665;SDS011;52365;47.464;18.976;2022-09-12T03:31:58;3.97;;;2.92;;
65665;SDS011;52365;47.464;18.976;2022-09-12T03:32:44;4.20;;;2.78;;
65665;SDS011;52365;47.464;18.976;2022-09-12T03:33:23;3.50;;;2.70;;
65665;SDS011;52365;47.464;18.976;2022-09-12T03:34:00;3.92;;;2.78;;
65665;SDS011;52365;47.464;18.976;2022-09-12T03:34:36;5.78;;;2.90;;
65665;SDS011;52365;47.464;18.976;2022-09-12T03:35:12;3.95;;;2.80;;
65665;SDS011;52365;47.464;18.976;2022-09-12T03:35:51;5.00;;;3.00;;
65665;SDS011;52365;47.464;18.976;2022-09-12T03:36:28;5.05;;;3.10;;
65665;SDS011;52365;47.464;18.976;2022-09-12T03:37:05;4.85;;;3.00;;
65665;SDS011;52365;47.464;18.976;2022-09-12T03:37:41;4.03;;;2.90;;
65665;SDS011;52365;47.464;18.976;2022-09-12T03:38:17;5.20;;;2.90;;
65665;SDS011;52365;47.464;18.976;2022-09-12T03:38:54;4.90;;;3.10;;
65665;SDS011;52365;47.464;18.976;2022-09-12T03:39:30;3.62;;;2.70;;
65665;SDS011;52365;47.464;18.976;2022-09-12T03:40:07;3.83;;;2.80;;
65665;SDS011;52365;47.464;18.976;2022-09-12T03:40:44;3.20;;;2.50;;
65665;SDS011;52365;47.464;18.976;2022-09-12T03:41:21;4.45;;;2.90;;
65665;SDS011;52365;47.464;18.976;2022-09-12T03:41:57;3.53;;;2.70;;
65665;SDS011;52365;47.464;18.976;2022-09-12T03:42:33;4.32;;;2.53;;
65665;SDS011;52365;47.464;18.976;2022-09-12T03:43:09;4.65;;;2.87;;
65665;SDS011;52365;47.464;18.976;2022-09-12T03:43:46;3.15;;;2.75;;
65665;SDS011;52365;47.464;18.976;2022-09-12T03:44:22;3.87;;;2.95;;
65665;SDS011;52365;47.464;18.976;2022-09-12T03:44:59;4.18;;;2.95;;
65665;SDS011;52365;47.464;18.976;2022-09-12T03:45:35;5.07;;;3.22;;
65665;SDS011;52365;47.464;18.976;2022-09-12T03:46:12;4.50;;;2.90;;
65665;SDS011;52365;47.464;18.976;2022-09-12T03:46:48;4.10;;;3.00;;
65665;SDS011;52365;47.464;18.976;2022-09-12T03:47:25;5.20;;;2.87;;
65665;SDS011;52365;47.464;18.976;2022-09-12T03:48:01;3.60;;;2.90;;
65665;SDS011;52365;47.464;18.976;2022-09-12T03:48:38;3.78;;;2.90;;
65665;SDS011;52365;47.464;18.976;2022-09-12T03:49:15;3.75;;;2.67;;
65665;SDS011;52365;47.464;18.976;2022-09-12T03:49:52;3.78;;;2.85;;
65665;SDS011;52365;47.464;18.976;2022-09-12T03:50:28;3.53;;;2.50;;
65665;SDS011;52365;47.464;18.976;2022-09-12T03:51:05;4.57;;;2.85;;
65665;SDS011;52365;47.464;18.976;2022-09-12T03:51:43;4.30;;;2.85;;
65665;SDS011;52365;47.464;18.976;2022-09-12T03:52:19;3.75;;;2.70;;
65665;SDS011;52365;47.464;18.976;2022-09-12T03:52:57;3.85;;;2.85;;
65665;SDS011;52365;47.464;18.976;2022-09-12T03:53:34;4.03;;;2.72;;
65665;SDS011;52365;47.464;18.976;2022-09-12T03:54:11;3.78;;;2.87;;
65665;SDS011;52365;47.464;18.976;2022-09-12T03:54:47;3.72;;;2.80;;
65665;SDS011;52365;47.464;18.976;2022-09-12T03:55:23;4.62;;;3.10;;
65665;SDS011;52365;47.464;18.976;2022-09-12T03:55:59;4.25;;;2.80;;
65665;SDS011;52365;47.464;18.976;2022-09-12T03:56:40;4.70;;;3.00;;
65665;SDS011;52365;47.464;18.976;2022-09-12T03:57:16;4.80;;;2.95;;
65665;SDS011;52365;47.464;18.976;2022-09-12T03:57:53;4.07;;;2.60;;
65665;SDS011;52365;47.464;18.976;2022-09-12T03:58:30;3.78;;;2.70;;
65665;SDS011;52365;47.464;18.976;2022-09-12T03:59:06;5.65;;;2.90;;
65665;SDS011;52365;47.464;18.976;2022-09-12T03:59:42;4.00;;;3.08;;
65665;SDS011;52365;47.464;18.976;2022-09-12T04:00:19;4.70;;;2.72;;
65665;SDS011;52365;47.464;18.976;2022-09-12T04:00:55;4.20;;;3.10;;
65665;SDS011;52365;47.464;18.976;2022-09-12T04:01:32;4.35;;;2.95;;
65665;SDS011;52365;47.464;18.976;2022-09-12T04:02:09;3.58;;;2.60;;
65665;SDS011;52365;47.464;18.976;2022-09-12T04:02:47;4.22;;;3.10;;
65665;SDS011;52365;47.464;18.976;2022-09-12T04:03:28;4.03;;;2.90;;
65665;SDS011;52365;47.464;18.976;2022-09-12T04:04:04;4.00;;;2.80;;
65665;SDS011;52365;47.464;18.976;2022-09-12T04:04:40;4.00;;;2.87;;
65665;SDS011;52365;47.464;18.976;2022-09-12T04:05:17;3.62;;;2.80;;
65665;SDS011;52365;47.464;18.976;2022-09-12T04:05:56;4.62;;;2.95;;
65665;SDS011;52365;47.464;18.976;2022-09-12T04:06:32;3.78;;;2.90;;
65665;SDS011;52365;47.464;18.976;2022-09-12T04:07:08;5.75;;;2.75;;
65665;SDS011;52365;47.464;18.976;2022-09-12T04:07:46;3.85;;;2.62;;
65665;SDS011;52365;47.464;18.976;2022-09-12T04:08:24;4.03;;;2.90;;
65665;SDS011;52365;47.464;18.976;2022-09-12T04:09:01;3.95;;;2.70;;
65665;SDS011;52365;47.464;18.976;2022-09-12T04:09:37;4.03;;;2.62;;
65665;SDS011;52365;47.464;18.976;2022-09-12T04:10:13;4.05;;;2.65;;
65665;SDS011;52365;47.464;18.976;2022-09-12T04:10:49;3.65;;;2.67;;
65665;SDS011;52365;47.464;18.976;2022-09-12T04:11:25;4.85;;;2.92;;
65665;SDS011;52365;47.464;18.976;2022-09-12T04:12:01;4.30;;;2.60;;
65665;SDS011;52365;47.464;18.976;2022-09-12T04:12:38;5.87;;;2.85;;
65665;SDS011;52365;47.464;18.976;2022-09-12T04:13:14;4.25;;;2.50;;
65665;SDS011;52365;47.464;18.976;2022-09-12T04:13:50;5.45;;;2.90;;
65665;SDS011;52365;47.464;18.976;2022-09-12T04:14:26;5.20;;;2.62;;
65665;SDS011;52365;47.464;18.976;2022-09-12T04:15:02;5.03;;;2.70;;
65665;SDS011;52365;47.464;18.976;2022-09-12T04:15:39;3.10;;;2.50;;
65665;SDS011;52365;47.464;18.976;2022-09-12T04:16:16;4.43;;;2.62;;
65665;SDS011;52365;47.464;18.976;2022-09-12T04:16:53;3.20;;;2.50;;
65665;SDS011;52365;47.464;18.976;2022-09-12T04:17:29;4.62;;;2.60;;
65665;SDS011;52365;47.464;18.976;2022-09-12T04:18:05;4.20;;;2.45;;
65665;SDS011;52365;47.464;18.976;2022-09-12T04:18:41;4.65;;;2.30;;
65665;SDS011;52365;47.464;18.976;2022-09-12T04:19:17;4.90;;;2.40;;
65665;SDS011;52365;47.464;18.976;2022-09-12T04:19:53;2.83;;;2.10;;
65665;SDS011;52365;47.464;18.976;2022-09-12T04:20:29;2.87;;;2.05;;
65665;SDS011;52365;47.464;18.976;2022-09-12T04:21:06;3.80;;;2.40;;
65665;SDS011;52365;47.464;18.976;2022-09-12T04:21:44;3.97;;;2.40;;
65665;SDS011;52365;47.464;18.976;2022-09-12T04:22:20;3.30;;;2.17;;
65665;SDS011;52365;47.464;18.976;2022-09-12T04:22:56;3.12;;;1.98;;
65665;SDS011;52365;47.464;18.976;2022-09-12T04:23:33;3.33;;;2.10;;
65665;SDS011;52365;47.464;18.976;2022-09-12T04:24:09;3.60;;;2.37;;
65665;SDS011;52365;47.464;18.976;2022-09-12T04:24:45;3.10;;;2.05;;
65665;SDS011;52365;47.464;18.976;2022-09-12T04:25:21;4.93;;;2.40;;
65665;SDS011;52365;47.464;18.976;2022-09-12T04:25:59;2.75;;;1.92;;
65665;SDS011;52365;47.464;18.976;2022-09-12T04:26:36;4.65;;;2.00;;
65665;SDS011;52365;47.464;18.976;2022-09-12T04:27:12;2.53;;;1.83;;
65665;SDS011;52365;47.464;18.976;2022-09-12T04:27:48;2.75;;;2.00;;
65665;SDS011;52365;47.464;18.976;2022-09-12T04:28:25;4.28;;;2.30;;
65665;SDS011;52365;47.464;18.976;2022-09-12T04:29:03;3.40;;;2.20;;
65665;SDS011;52365;47.464;18.976;2022-09-12T04:29:39;3.60;;;2.00;;
65665;SDS011;52365;47.464;18.976;2022-09-12T04:30:15;2.78;;;2.00;;
65665;SDS011;52365;47.464;18.976;2022-09-12T04:30:54;3.28;;;2.20;;
65665;SDS011;52365;47.464;18.976;2022-09-12T04:31:31;3.22;;;2.08;;
65665;SDS011;52365;47.464;18.976;2022-09-12T04:32:07;3.62;;;2.10;;
65665;SDS011;52365;47.464;18.976;2022-09-12T04:32:43;3.37;;;2.15;;
65665;SDS011;52365;47.464;18.976;2022-09-12T04:33:19;4.07;;;2.20;;
65665;SDS011;52365;47.464;18.976;2022-09-12T04:33:55;4.85;;;2.20;;
65665;SDS011;52365;47.464;18.976;2022-09-12T04:34:33;3.97;;;2.30;;
65665;SDS011;52365;47.464;18.976;2022-09-12T04:35:09;3.42;;;2.17;;
65665;SDS011;52365;47.464;18.976;2022-09-12T04:35:47;3.65;;;2.42;;
65665;SDS011;52365;47.464;18.976;2022-09-12T04:36:24;3.42;;;2.35;;
65665;SDS011;52365;47.464;18.976;2022-09-12T04:37:01;3.17;;;2.22;;
65665;SDS011;52365;47.464;18.976;2022-09-12T04:37:37;3.33;;;2.35;;
65665;SDS011;52365;47.464;18.976;2022-09-12T04:38:13;4.03;;;2.55;;
65665;SDS011;52365;47.464;18.976;2022-09-12T04:38:49;3.83;;;2.53;;
65665;SDS011;52365;47.464;18.976;2022-09-12T04:39:26;3.95;;;2.45;;
65665;SDS011;52365;47.464;18.976;2022-09-12T04:40:02;4.43;;;2.37;;
65665;SDS011;52365;47.464;18.976;2022-09-12T04:40:38;3.10;;;2.40;;